sensor_id;sensor_type;location;lat;lon;timestamp;P1;durP1;ratioP1;P2;durP2;ratioP2
16727;SDS011;8482;54.396;18.590;2022-11-15T00:00:53;27.67;;;16.45;;
16727;SDS011;8482;54.396;18.590;2022-11-15T00:03:20;27.33;;;17.13;;
16727;SDS011;8482;54.396;18.590;2022-11-15T00:05:51;27.60;;;17.58;;
16727;SDS011;8482;54.396;18.590;2022-11-15T00:08:18;27.15;;;16.73;;
16727;SDS011;8482;54.396;18.590;2022-11-15T00:10:54;25.90;;;15.90;;
16727;SDS011;8482;54.396;18.590;2022-11-15T00:13:21;29.00;;;16.05;;
16727;SDS011;8482;54.396;18.590;2022-11-15T00:15:48;28.23;;;16.42;;
16727;SDS011;8482;54.396;18.590;2022-11-15T00:18:14;27.20;;;16.90;;
16727;SDS011;8482;54.396;18.590;2022-11-15T00:20:41;26.77;;;15.88;;
16727;SDS011;8482;54.396;18.590;2022-11-15T00:23:07;29.35;;;18.70;;
16727;SDS011;8482;54.396;18.590;2022-11-15T00:25:34;27.50;;;16.52;;
16727;SDS011;8482;54.396;18.590;2022-11-15T00:28:00;31.63;;;18.25;;
16727;SDS011;8482;54.396;18.590;2022-11-15T00:30:26;29.92;;;17.48;;
16727;SDS011;8482;54.396;18.590;2022-11-15T00:32:53;29.55;;;17.27;;
16727;SDS011;8482;54.396;18.590;2022-11-15T00:35:19;27.92;;;16.88;;
16727;SDS011;8482;54.396;18.590;2022-11-15T00:37:46;30.50;;;18.00;;
16727;SDS011;8482;54.396;18.590;2022-11-15T00:40:12;28.98;;;17.40;;
16727;SDS011;8482;54.396;18.590;2022-11-15T00:42:39;28.73;;;17.05;;
16727;SDS011;8482;54.396;18.590;2022-11-15T00:45:06;30.83;;;18.13;;
16727;SDS011;8482;54.396;18.590;2022-11-15T00:47:33;31.85;;;17.88;;
16727;SDS011;8482;54.396;18.590;2022-11-15T00:49:58;28.88;;;17.17;;
16727;SDS011;8482;54.396;18.590;2022-11-15T00:52:24;30.50;;;17.65;;
16727;SDS011;8482;54.396;18.590;2022-11-15T00:54:50;30.05;;;17.85;;
16727;SDS011;8482;54.396;18.590;2022-11-15T00:57:15;31.15;;;18.02;;
16727;SDS011;8482;54.396;18.590;2022-11-15T00:59:41;31.55;;;17.40;;
16727;SDS011;8482;54.396;18.590;2022-11-15T01:02:10;32.45;;;17.33;;
16727;SDS011;8482;54.396;18.590;2022-11-15T01:04:35;32.88;;;17.13;;
16727;SDS011;8482;54.396;18.590;2022-11-15T01:07:01;27.85;;;16.60;;
16727;SDS011;8482;54.396;18.590;2022-11-15T01:09:27;32.90;;;17.45;;
16727;SDS011;8482;54.396;18.590;2022-11-15T01:11:53;31.85;;;17.15;;
16727;SDS011;8482;54.396;18.590;2022-11-15T01:14:19;31.15;;;17.48;;
16727;SDS011;8482;54.396;18.590;2022-11-15T01:16:44;27.25;;;16.05;;
16727;SDS011;8482;54.396;18.590;2022-11-15T01:19:10;27.95;;;16.38;;
16727;SDS011;8482;54.396;18.590;2022-11-15T01:21:36;30.27;;;16.65;;
16727;SDS011;8482;54.396;18.590;2022-11-15T01:24:02;29.17;;;17.33;;
16727;SDS011;8482;54.396;18.590;2022-11-15T01:26:28;31.85;;;18.60;;
16727;SDS011;8482;54.396;18.590;2022-11-15T01:28:53;33.47;;;18.02;;
16727;SDS011;8482;54.396;18.590;2022-11-15T01:31:20;27.80;;;16.70;;
16727;SDS011;8482;54.396;18.590;2022-11-15T01:33:47;31.30;;;16.23;;
16727;SDS011;8482;54.396;18.590;2022-11-15T01:36:14;29.45;;;16.55;;
16727;SDS011;8482;54.396;18.590;2022-11-15T01:38:56;30.35;;;16.20;;
16727;SDS011;8482;54.396;18.590;2022-11-15T01:41:27;27.92;;;15.90;;
16727;SDS011;8482;54.396;18.590;2022-11-15T01:46:59;27.48;;;15.13;;
16727;SDS011;8482;54.396;18.590;2022-11-15T01:49:32;26.95;;;15.18;;
16727;SDS011;8482;54.396;18.590;2022-11-15T01:52:03;27.40;;;15.82;;
16727;SDS011;8482;54.396;18.590;2022-11-15T01:54:35;28.02;;;15.98;;
16727;SDS011;8482;54.396;18.590;2022-11-15T01:57:04;30.23;;;15.45;;
16727;SDS011;8482;54.396;18.590;2022-11-15T01:59:37;28.70;;;15.75;;
16727;SDS011;8482;54.396;18.590;2022-11-15T02:02:07;29.75;;;16.77;;
16727;SDS011;8482;54.396;18.590;2022-11-15T02:04:35;31.38;;;17.00;;
16727;SDS011;8482;54.396;18.590;2022-11-15T02:07:10;28.63;;;15.88;;
16727;SDS011;8482;54.396;18.590;2022-11-15T02:09:41;29.83;;;16.60;;
16727;SDS011;8482;54.396;18.590;2022-11-15T02:12:08;31.55;;;16.27;;
16727;SDS011;8482;54.396;18.590;2022-11-15T02:14:38;33.30;;;16.77;;
16727;SDS011;8482;54.396;18.590;2022-11-15T02:28:57;37.45;;;18.45;;
16727;SDS011;8482;54.396;18.590;2022-11-15T02:44:30;34.67;;;18.20;;
16727;SDS011;8482;54.396;18.590;2022-11-15T02:46:51;37.20;;;18.92;;
16727;SDS011;8482;54.396;18.590;2022-11-15T02:49:39;32.75;;;17.23;;
16727;SDS011;8482;54.396;18.590;2022-11-15T02:52:14;38.17;;;17.42;;
16727;SDS011;8482;54.396;18.590;2022-11-15T02:54:55;34.47;;;17.10;;
16727;SDS011;8482;54.396;18.590;2022-11-15T02:57:34;35.45;;;17.27;;
16727;SDS011;8482;54.396;18.590;2022-11-15T03:00:07;31.58;;;16.38;;
16727;SDS011;8482;54.396;18.590;2022-11-15T03:11:29;31.00;;;17.00;;
16727;SDS011;8482;54.396;18.590;2022-11-15T03:14:21;31.55;;;16.40;;
16727;SDS011;8482;54.396;18.590;2022-11-15T03:19:50;37.40;;;18.63;;
16727;SDS011;8482;54.396;18.590;2022-11-15T03:22:24;37.63;;;18.52;;
16727;SDS011;8482;54.396;18.590;2022-11-15T03:24:58;34.38;;;16.92;;
16727;SDS011;8482;54.396;18.590;2022-11-15T03:27:31;32.60;;;18.35;;
16727;SDS011;8482;54.396;18.590;2022-11-15T03:30:08;34.83;;;19.08;;
16727;SDS011;8482;54.396;18.590;2022-11-15T03:32:36;36.53;;;19.23;;
16727;SDS011;8482;54.396;18.590;2022-11-15T03:35:17;36.63;;;17.27;;
16727;SDS011;8482;54.396;18.590;2022-11-15T03:38:08;39.13;;;19.13;;
16727;SDS011;8482;54.396;18.590;2022-11-15T03:41:00;33.92;;;17.65;;
16727;SDS011;8482;54.396;18.590;2022-11-15T03:43:37;34.50;;;17.15;;
16727;SDS011;8482;54.396;18.590;2022-11-15T03:46:26;38.92;;;19.52;;
16727;SDS011;8482;54.396;18.590;2022-11-15T03:49:20;36.33;;;17.50;;
16727;SDS011;8482;54.396;18.590;2022-11-15T03:51:56;36.50;;;18.98;;
16727;SDS011;8482;54.396;18.590;2022-11-15T03:54:23;39.58;;;19.67;;
16727;SDS011;8482;54.396;18.590;2022-11-15T03:56:49;44.40;;;22.25;;
16727;SDS011;8482;54.396;18.590;2022-11-15T03:59:15;39.92;;;19.95;;
16727;SDS011;8482;54.396;18.590;2022-11-15T04:01:40;42.78;;;21.85;;
16727;SDS011;8482;54.396;18.590;2022-11-15T04:04:06;37.00;;;20.00;;
16727;SDS011;8482;54.396;18.590;2022-11-15T04:06:32;43.85;;;19.77;;
16727;SDS011;8482;54.396;18.590;2022-11-15T04:08:58;39.88;;;19.48;;
16727;SDS011;8482;54.396;18.590;2022-11-15T04:11:23;41.53;;;19.55;;
16727;SDS011;8482;54.396;18.590;2022-11-15T04:13:49;44.00;;;21.27;;
16727;SDS011;8482;54.396;18.590;2022-11-15T04:16:15;39.58;;;19.73;;
16727;SDS011;8482;54.396;18.590;2022-11-15T04:18:40;37.28;;;19.27;;
16727;SDS011;8482;54.396;18.590;2022-11-15T04:21:07;36.85;;;17.42;;
16727;SDS011;8482;54.396;18.590;2022-11-15T04:23:52;34.42;;;17.05;;
16727;SDS011;8482;54.396;18.590;2022-11-15T04:26:36;32.63;;;15.32;;
16727;SDS011;8482;54.396;18.590;2022-11-15T04:29:01;29.45;;;15.98;;
16727;SDS011;8482;54.396;18.590;2022-11-15T04:31:46;30.83;;;15.63;;
16727;SDS011;8482;54.396;18.590;2022-11-15T04:34:11;30.13;;;15.13;;
16727;SDS011;8482;54.396;18.590;2022-11-15T04:36:37;30.52;;;14.75;;
16727;SDS011;8482;54.396;18.590;2022-11-15T04:39:21;29.48;;;14.65;;
16727;SDS011;8482;54.396;18.590;2022-11-15T04:41:47;31.30;;;15.23;;
16727;SDS011;8482;54.396;18.590;2022-11-15T04:44:13;32.53;;;16.58;;
16727;SDS011;8482;54.396;18.590;2022-11-15T04:46:38;32.03;;;14.63;;
16727;SDS011;8482;54.396;18.590;2022-11-15T04:49:04;30.27;;;14.95;;
16727;SDS011;8482;54.396;18.590;2022-11-15T04:51:30;30.30;;;15.10;;
16727;SDS011;8482;54.396;18.590;2022-11-15T04:53:55;32.83;;;15.85;;
16727;SDS011;8482;54.396;18.590;2022-11-15T04:56:21;30.08;;;15.13;;
16727;SDS011;8482;54.396;18.590;2022-11-15T04:58:50;34.28;;;16.63;;
16727;SDS011;8482;54.396;18.590;2022-11-15T05:01:16;33.08;;;15.43;;
16727;SDS011;8482;54.396;18.590;2022-11-15T05:03:42;31.50;;;15.07;;
16727;SDS011;8482;54.396;18.590;2022-11-15T05:06:28;29.50;;;14.88;;
16727;SDS011;8482;54.396;18.590;2022-11-15T05:08:55;30.30;;;13.90;;
16727;SDS011;8482;54.396;18.590;2022-11-15T05:11:21;31.90;;;15.27;;
16727;SDS011;8482;54.396;18.590;2022-11-15T05:13:47;29.42;;;14.68;;
16727;SDS011;8482;54.396;18.590;2022-11-15T05:16:13;28.30;;;14.45;;
16727;SDS011;8482;54.396;18.590;2022-11-15T05:18:39;29.70;;;15.93;;
16727;SDS011;8482;54.396;18.590;2022-11-15T05:21:06;32.92;;;15.88;;
16727;SDS011;8482;54.396;18.590;2022-11-15T05:23:36;30.45;;;14.80;;
16727;SDS011;8482;54.396;18.590;2022-11-15T05:26:03;30.85;;;15.48;;
16727;SDS011;8482;54.396;18.590;2022-11-15T05:28:31;30.38;;;16.83;;
16727;SDS011;8482;54.396;18.590;2022-11-15T05:31:05;31.88;;;15.20;;
16727;SDS011;8482;54.396;18.590;2022-11-15T05:33:33;30.70;;;14.20;;
16727;SDS011;8482;54.396;18.590;2022-11-15T05:36:46;30.70;;;14.15;;
16727;SDS011;8482;54.396;18.590;2022-11-15T05:39:06;27.27;;;14.07;;
16727;SDS011;8482;54.396;18.590;2022-11-15T05:41:43;31.50;;;15.48;;
16727;SDS011;8482;54.396;18.590;2022-11-15T05:44:15;28.35;;;14.27;;
16727;SDS011;8482;54.396;18.590;2022-11-15T05:46:46;31.27;;;14.70;;
16727;SDS011;8482;54.396;18.590;2022-11-15T05:49:15;29.73;;;14.45;;
16727;SDS011;8482;54.396;18.590;2022-11-15T05:51:44;28.38;;;14.90;;
16727;SDS011;8482;54.396;18.590;2022-11-15T05:54:14;31.85;;;15.60;;
16727;SDS011;8482;54.396;18.590;2022-11-15T05:56:42;32.75;;;15.63;;
16727;SDS011;8482;54.396;18.590;2022-11-15T05:59:09;27.55;;;14.15;;
16727;SDS011;8482;54.396;18.590;2022-11-15T06:01:36;29.63;;;14.77;;
16727;SDS011;8482;54.396;18.590;2022-11-15T06:04:03;30.85;;;15.63;;
16727;SDS011;8482;54.396;18.590;2022-11-15T06:06:29;26.67;;;12.70;;
16727;SDS011;8482;54.396;18.590;2022-11-15T06:08:55;27.83;;;13.73;;
16727;SDS011;8482;54.396;18.590;2022-11-15T06:11:21;23.65;;;12.23;;
16727;SDS011;8482;54.396;18.590;2022-11-15T06:13:47;29.33;;;13.85;;
16727;SDS011;8482;54.396;18.590;2022-11-15T06:16:12;25.35;;;13.00;;
16727;SDS011;8482;54.396;18.590;2022-11-15T06:18:38;23.00;;;12.32;;
16727;SDS011;8482;54.396;18.590;2022-11-15T06:21:04;24.08;;;13.07;;
16727;SDS011;8482;54.396;18.590;2022-11-15T06:23:31;23.38;;;11.68;;
16727;SDS011;8482;54.396;18.590;2022-11-15T06:25:59;22.92;;;13.02;;
16727;SDS011;8482;54.396;18.590;2022-11-15T06:28:33;23.90;;;12.30;;
16727;SDS011;8482;54.396;18.590;2022-11-15T06:31:06;24.77;;;12.27;;
16727;SDS011;8482;54.396;18.590;2022-11-15T06:33:36;23.75;;;12.55;;
16727;SDS011;8482;54.396;18.590;2022-11-15T06:36:04;24.35;;;12.65;;
16727;SDS011;8482;54.396;18.590;2022-11-15T06:38:38;26.80;;;13.20;;
16727;SDS011;8482;54.396;18.590;2022-11-15T06:41:05;24.63;;;12.80;;
16727;SDS011;8482;54.396;18.590;2022-11-15T06:43:34;22.25;;;11.55;;
16727;SDS011;8482;54.396;18.590;2022-11-15T06:46:01;25.15;;;13.65;;
16727;SDS011;8482;54.396;18.590;2022-11-15T06:48:29;26.02;;;14.77;;
16727;SDS011;8482;54.396;18.590;2022-11-15T06:50:57;26.38;;;13.48;;
16727;SDS011;8482;54.396;18.590;2022-11-15T06:53:24;27.13;;;13.18;;
16727;SDS011;8482;54.396;18.590;2022-11-15T06:55:51;26.45;;;13.48;;
16727;SDS011;8482;54.396;18.590;2022-11-15T06:58:17;27.88;;;13.63;;
16727;SDS011;8482;54.396;18.590;2022-11-15T07:00:46;31.02;;;14.25;;
16727;SDS011;8482;54.396;18.590;2022-11-15T07:03:12;27.25;;;13.13;;
16727;SDS011;8482;54.396;18.590;2022-11-15T07:05:37;27.48;;;13.63;;
16727;SDS011;8482;54.396;18.590;2022-11-15T07:08:03;25.25;;;13.48;;
16727;SDS011;8482;54.396;18.590;2022-11-15T07:10:29;27.65;;;13.98;;
16727;SDS011;8482;54.396;18.590;2022-11-15T07:12:55;31.60;;;15.65;;
16727;SDS011;8482;54.396;18.590;2022-11-15T07:15:25;26.35;;;14.90;;
16727;SDS011;8482;54.396;18.590;2022-11-15T07:17:51;25.08;;;13.30;;
16727;SDS011;8482;54.396;18.590;2022-11-15T07:20:17;25.83;;;13.50;;
16727;SDS011;8482;54.396;18.590;2022-11-15T07:22:43;24.70;;;12.80;;
16727;SDS011;8482;54.396;18.590;2022-11-15T07:25:12;25.10;;;13.57;;
16727;SDS011;8482;54.396;18.590;2022-11-15T07:27:38;27.33;;;13.68;;
16727;SDS011;8482;54.396;18.590;2022-11-15T07:30:04;24.10;;;12.98;;
16727;SDS011;8482;54.396;18.590;2022-11-15T07:32:30;26.50;;;13.90;;
16727;SDS011;8482;54.396;18.590;2022-11-15T07:34:56;23.92;;;13.07;;
16727;SDS011;8482;54.396;18.590;2022-11-15T07:37:22;24.48;;;13.38;;
16727;SDS011;8482;54.396;18.590;2022-11-15T07:39:48;25.45;;;12.57;;
16727;SDS011;8482;54.396;18.590;2022-11-15T07:42:14;23.30;;;12.32;;
16727;SDS011;8482;54.396;18.590;2022-11-15T07:44:58;26.25;;;12.15;;
16727;SDS011;8482;54.396;18.590;2022-11-15T07:47:23;23.58;;;12.57;;
16727;SDS011;8482;54.396;18.590;2022-11-15T07:49:49;23.67;;;12.27;;
16727;SDS011;8482;54.396;18.590;2022-11-15T07:52:15;22.05;;;12.18;;
16727;SDS011;8482;54.396;18.590;2022-11-15T07:54:41;28.45;;;13.90;;
16727;SDS011;8482;54.396;18.590;2022-11-15T07:57:06;26.42;;;13.02;;
16727;SDS011;8482;54.396;18.590;2022-11-15T07:59:34;23.67;;;13.18;;
16727;SDS011;8482;54.396;18.590;2022-11-15T08:02:00;28.42;;;13.25;;
16727;SDS011;8482;54.396;18.590;2022-11-15T08:04:26;26.20;;;13.27;;
16727;SDS011;8482;54.396;18.590;2022-11-15T08:06:51;26.63;;;13.80;;
16727;SDS011;8482;54.396;18.590;2022-11-15T08:09:17;23.50;;;11.75;;
16727;SDS011;8482;54.396;18.590;2022-11-15T08:11:43;24.63;;;13.63;;
16727;SDS011;8482;54.396;18.590;2022-11-15T08:14:08;25.67;;;13.95;;
16727;SDS011;8482;54.396;18.590;2022-11-15T08:16:34;24.65;;;12.55;;
16727;SDS011;8482;54.396;18.590;2022-11-15T08:19:00;24.23;;;12.32;;
16727;SDS011;8482;54.396;18.590;2022-11-15T08:21:26;24.65;;;12.30;;
16727;SDS011;8482;54.396;18.590;2022-11-15T08:23:52;22.52;;;10.90;;
16727;SDS011;8482;54.396;18.590;2022-11-15T08:26:17;25.02;;;12.88;;
16727;SDS011;8482;54.396;18.590;2022-11-15T08:28:43;22.67;;;13.13;;
16727;SDS011;8482;54.396;18.590;2022-11-15T08:31:13;24.10;;;12.25;;
16727;SDS011;8482;54.396;18.590;2022-11-15T08:33:41;24.73;;;14.05;;
16727;SDS011;8482;54.396;18.590;2022-11-15T08:36:09;25.17;;;13.00;;
16727;SDS011;8482;54.396;18.590;2022-11-15T08:38:40;26.25;;;13.38;;
16727;SDS011;8482;54.396;18.590;2022-11-15T08:41:06;26.08;;;12.90;;
16727;SDS011;8482;54.396;18.590;2022-11-15T08:43:32;26.92;;;13.23;;
16727;SDS011;8482;54.396;18.590;2022-11-15T08:45:58;28.23;;;13.93;;
16727;SDS011;8482;54.396;18.590;2022-11-15T08:48:24;24.95;;;13.52;;
16727;SDS011;8482;54.396;18.590;2022-11-15T08:50:56;27.20;;;14.00;;
16727;SDS011;8482;54.396;18.590;2022-11-15T08:53:22;26.95;;;12.77;;
16727;SDS011;8482;54.396;18.590;2022-11-15T08:55:48;24.83;;;12.07;;
16727;SDS011;8482;54.396;18.590;2022-11-15T08:58:14;24.25;;;11.90;;
16727;SDS011;8482;54.396;18.590;2022-11-15T09:00:39;25.63;;;12.70;;
16727;SDS011;8482;54.396;18.590;2022-11-15T09:03:06;25.80;;;13.00;;
16727;SDS011;8482;54.396;18.590;2022-11-15T09:05:35;24.50;;;12.68;;
16727;SDS011;8482;54.396;18.590;2022-11-15T09:08:02;27.40;;;12.77;;
16727;SDS011;8482;54.396;18.590;2022-11-15T09:10:29;22.75;;;13.18;;
16727;SDS011;8482;54.396;18.590;2022-11-15T09:12:56;29.67;;;14.52;;
16727;SDS011;8482;54.396;18.590;2022-11-15T09:15:22;24.60;;;12.20;;
16727;SDS011;8482;54.396;18.590;2022-11-15T09:17:48;25.88;;;13.80;;
16727;SDS011;8482;54.396;18.590;2022-11-15T09:20:14;23.23;;;12.77;;
16727;SDS011;8482;54.396;18.590;2022-11-15T09:22:40;23.38;;;12.07;;
16727;SDS011;8482;54.396;18.590;2022-11-15T09:25:06;24.05;;;12.80;;
16727;SDS011;8482;54.396;18.590;2022-11-15T09:27:33;25.92;;;12.07;;
16727;SDS011;8482;54.396;18.590;2022-11-15T09:29:59;27.63;;;12.88;;
16727;SDS011;8482;54.396;18.590;2022-11-15T09:32:27;24.40;;;12.52;;
16727;SDS011;8482;54.396;18.590;2022-11-15T09:34:55;22.40;;;12.13;;
16727;SDS011;8482;54.396;18.590;2022-11-15T09:37:21;23.42;;;12.18;;
16727;SDS011;8482;54.396;18.590;2022-11-15T09:39:47;26.02;;;12.88;;
16727;SDS011;8482;54.396;18.590;2022-11-15T09:45:22;23.15;;;11.95;;
16727;SDS011;8482;54.396;18.590;2022-11-15T09:48:03;22.17;;;11.45;;
16727;SDS011;8482;54.396;18.590;2022-11-15T09:50:54;22.23;;;12.23;;
16727;SDS011;8482;54.396;18.590;2022-11-15T09:53:38;22.55;;;11.52;;
16727;SDS011;8482;54.396;18.590;2022-11-15T09:56:20;25.10;;;11.98;;
16727;SDS011;8482;54.396;18.590;2022-11-15T09:58:55;20.45;;;11.48;;
16727;SDS011;8482;54.396;18.590;2022-11-15T10:03:56;21.92;;;11.00;;
16727;SDS011;8482;54.396;18.590;2022-11-15T10:06:25;23.90;;;11.13;;
16727;SDS011;8482;54.396;18.590;2022-11-15T10:09:13;22.52;;;12.55;;
16727;SDS011;8482;54.396;18.590;2022-11-15T10:11:58;23.23;;;12.07;;
16727;SDS011;8482;54.396;18.590;2022-11-15T10:14:25;23.98;;;12.95;;
16727;SDS011;8482;54.396;18.590;2022-11-15T10:23:01;22.85;;;10.68;;
16727;SDS011;8482;54.396;18.590;2022-11-15T10:25:33;20.67;;;10.95;;
16727;SDS011;8482;54.396;18.590;2022-11-15T10:30:58;18.52;;;11.00;;
16727;SDS011;8482;54.396;18.590;2022-11-15T10:33:30;20.08;;;11.68;;
16727;SDS011;8482;54.396;18.590;2022-11-15T10:41:22;22.05;;;11.30;;
16727;SDS011;8482;54.396;18.590;2022-11-15T10:46:32;21.23;;;12.10;;
16727;SDS011;8482;54.396;18.590;2022-11-15T10:49:17;23.40;;;12.13;;
16727;SDS011;8482;54.396;18.590;2022-11-15T10:51:54;22.45;;;11.88;;
16727;SDS011;8482;54.396;18.590;2022-11-15T10:54:30;19.63;;;10.48;;
16727;SDS011;8482;54.396;18.590;2022-11-15T10:57:12;17.83;;;9.80;;
16727;SDS011;8482;54.396;18.590;2022-11-15T10:59:44;19.58;;;11.45;;
16727;SDS011;8482;54.396;18.590;2022-11-15T11:02:30;19.33;;;10.27;;
16727;SDS011;8482;54.396;18.590;2022-11-15T11:05:25;21.05;;;11.00;;
16727;SDS011;8482;54.396;18.590;2022-11-15T11:08:04;18.35;;;10.23;;
16727;SDS011;8482;54.396;18.590;2022-11-15T11:10:39;19.33;;;10.05;;
16727;SDS011;8482;54.396;18.590;2022-11-15T11:13:22;23.38;;;11.93;;
16727;SDS011;8482;54.396;18.590;2022-11-15T11:19:18;19.85;;;10.55;;
16727;SDS011;8482;54.396;18.590;2022-11-15T11:22:17;19.00;;;10.50;;
16727;SDS011;8482;54.396;18.590;2022-11-15T11:34:20;24.50;;;12.25;;
16727;SDS011;8482;54.396;18.590;2022-11-15T11:39:51;21.23;;;11.73;;
16727;SDS011;8482;54.396;18.590;2022-11-15T11:45:48;23.35;;;11.63;;
16727;SDS011;8482;54.396;18.590;2022-11-15T11:48:45;22.42;;;12.73;;
16727;SDS011;8482;54.396;18.590;2022-11-15T11:51:20;20.65;;;10.95;;
16727;SDS011;8482;54.396;18.590;2022-11-15T11:56:51;21.08;;;11.75;;
16727;SDS011;8482;54.396;18.590;2022-11-15T11:59:42;21.80;;;11.35;;
16727;SDS011;8482;54.396;18.590;2022-11-15T12:02:34;20.92;;;11.68;;
16727;SDS011;8482;54.396;18.590;2022-11-15T12:07:52;24.40;;;14.45;;
16727;SDS011;8482;54.396;18.590;2022-11-15T12:10:28;22.48;;;13.00;;
16727;SDS011;8482;54.396;18.590;2022-11-15T12:13:09;22.65;;;12.90;;
16727;SDS011;8482;54.396;18.590;2022-11-15T12:15:47;25.88;;;14.00;;
16727;SDS011;8482;54.396;18.590;2022-11-15T12:18:23;25.70;;;13.43;;
16727;SDS011;8482;54.396;18.590;2022-11-15T12:20:57;22.60;;;13.30;;
16727;SDS011;8482;54.396;18.590;2022-11-15T12:23:30;27.73;;;13.90;;
16727;SDS011;8482;54.396;18.590;2022-11-15T12:26:11;24.17;;;13.20;;
16727;SDS011;8482;54.396;18.590;2022-11-15T12:28:55;23.65;;;13.52;;
16727;SDS011;8482;54.396;18.590;2022-11-15T12:34:00;25.63;;;14.10;;
16727;SDS011;8482;54.396;18.590;2022-11-15T12:36:39;26.83;;;13.88;;
16727;SDS011;8482;54.396;18.590;2022-11-15T12:39:09;28.50;;;15.77;;
16727;SDS011;8482;54.396;18.590;2022-11-15T13:30:40;30.50;;;15.88;;
16727;SDS011;8482;54.396;18.590;2022-11-15T13:33:15;33.80;;;17.42;;
16727;SDS011;8482;54.396;18.590;2022-11-15T13:35:57;29.55;;;15.40;;
16727;SDS011;8482;54.396;18.590;2022-11-15T13:38:53;33.22;;;15.75;;
16727;SDS011;8482;54.396;18.590;2022-11-15T13:41:26;27.85;;;15.50;;
16727;SDS011;8482;54.396;18.590;2022-11-15T13:43:56;37.03;;;15.65;;
16727;SDS011;8482;54.396;18.590;2022-11-15T13:46:24;27.58;;;15.07;;
16727;SDS011;8482;54.396;18.590;2022-11-15T13:48:59;29.30;;;14.70;;
16727;SDS011;8482;54.396;18.590;2022-11-15T13:56:37;29.23;;;14.45;;
16727;SDS011;8482;54.396;18.590;2022-11-15T14:01:51;24.83;;;14.30;;
16727;SDS011;8482;54.396;18.590;2022-11-15T14:04:20;26.50;;;14.35;;
16727;SDS011;8482;54.396;18.590;2022-11-15T14:06:51;28.20;;;13.88;;
16727;SDS011;8482;54.396;18.590;2022-11-15T14:14:57;26.10;;;12.68;;
16727;SDS011;8482;54.396;18.590;2022-11-15T14:18:03;24.17;;;13.30;;
16727;SDS011;8482;54.396;18.590;2022-11-15T14:23:04;26.65;;;13.40;;
16727;SDS011;8482;54.396;18.590;2022-11-15T14:25:55;22.88;;;11.73;;
16727;SDS011;8482;54.396;18.590;2022-11-15T14:28:28;27.05;;;11.82;;
16727;SDS011;8482;54.396;18.590;2022-11-15T14:31:04;25.30;;;11.85;;
16727;SDS011;8482;54.396;18.590;2022-11-15T14:33:38;24.25;;;12.48;;
16727;SDS011;8482;54.396;18.590;2022-11-15T14:36:11;22.95;;;12.13;;
16727;SDS011;8482;54.396;18.590;2022-11-15T14:38:44;22.35;;;12.05;;
16727;SDS011;8482;54.396;18.590;2022-11-15T14:41:18;20.10;;;11.13;;
16727;SDS011;8482;54.396;18.590;2022-11-15T14:43:50;22.60;;;11.73;;
16727;SDS011;8482;54.396;18.590;2022-11-15T14:46:17;23.95;;;11.05;;
16727;SDS011;8482;54.396;18.590;2022-11-15T14:48:43;24.58;;;11.30;;
16727;SDS011;8482;54.396;18.590;2022-11-15T14:51:13;23.10;;;11.13;;
16727;SDS011;8482;54.396;18.590;2022-11-15T14:53:42;21.42;;;11.38;;
16727;SDS011;8482;54.396;18.590;2022-11-15T14:56:10;20.63;;;11.23;;
16727;SDS011;8482;54.396;18.590;2022-11-15T14:58:36;20.20;;;11.05;;
16727;SDS011;8482;54.396;18.590;2022-11-15T15:01:24;19.10;;;11.00;;
16727;SDS011;8482;54.396;18.590;2022-11-15T15:03:50;21.85;;;11.52;;
16727;SDS011;8482;54.396;18.590;2022-11-15T15:06:17;19.90;;;11.43;;
16727;SDS011;8482;54.396;18.590;2022-11-15T15:08:44;22.45;;;11.80;;
16727;SDS011;8482;54.396;18.590;2022-11-15T15:11:14;20.58;;;10.65;;
16727;SDS011;8482;54.396;18.590;2022-11-15T15:13:46;20.08;;;10.35;;
16727;SDS011;8482;54.396;18.590;2022-11-15T15:16:12;21.40;;;11.30;;
16727;SDS011;8482;54.396;18.590;2022-11-15T15:18:38;18.35;;;9.40;;
16727;SDS011;8482;54.396;18.590;2022-11-15T15:21:04;18.85;;;9.48;;
16727;SDS011;8482;54.396;18.590;2022-11-15T15:23:45;21.38;;;10.23;;
16727;SDS011;8482;54.396;18.590;2022-11-15T15:26:11;19.73;;;10.50;;
16727;SDS011;8482;54.396;18.590;2022-11-15T15:28:36;18.58;;;10.15;;
16727;SDS011;8482;54.396;18.590;2022-11-15T15:31:04;18.83;;;9.65;;
16727;SDS011;8482;54.396;18.590;2022-11-15T15:33:31;20.08;;;10.50;;
16727;SDS011;8482;54.396;18.590;2022-11-15T15:35:57;17.25;;;9.55;;
16727;SDS011;8482;54.396;18.590;2022-11-15T15:38:24;16.08;;;8.77;;
16727;SDS011;8482;54.396;18.590;2022-11-15T15:40:50;20.48;;;9.52;;
16727;SDS011;8482;54.396;18.590;2022-11-15T15:43:17;17.95;;;8.77;;
16727;SDS011;8482;54.396;18.590;2022-11-15T15:45:43;16.98;;;9.77;;
16727;SDS011;8482;54.396;18.590;2022-11-15T15:48:13;19.13;;;9.32;;
16727;SDS011;8482;54.396;18.590;2022-11-15T15:50:41;19.63;;;9.77;;
16727;SDS011;8482;54.396;18.590;2022-11-15T15:53:08;18.75;;;9.60;;
16727;SDS011;8482;54.396;18.590;2022-11-15T15:55:36;14.75;;;8.55;;
16727;SDS011;8482;54.396;18.590;2022-11-15T15:58:02;18.05;;;10.10;;
16727;SDS011;8482;54.396;18.590;2022-11-15T16:00:29;18.10;;;9.30;;
16727;SDS011;8482;54.396;18.590;2022-11-15T16:02:57;19.33;;;9.20;;
16727;SDS011;8482;54.396;18.590;2022-11-15T16:05:24;16.70;;;9.27;;
16727;SDS011;8482;54.396;18.590;2022-11-15T16:07:50;15.48;;;8.80;;
16727;SDS011;8482;54.396;18.590;2022-11-15T16:10:23;19.20;;;9.40;;
16727;SDS011;8482;54.396;18.590;2022-11-15T16:12:56;19.88;;;10.02;;
16727;SDS011;8482;54.396;18.590;2022-11-15T16:15:24;18.00;;;9.38;;
16727;SDS011;8482;54.396;18.590;2022-11-15T16:17:54;18.77;;;9.43;;
16727;SDS011;8482;54.396;18.590;2022-11-15T16:20:29;18.38;;;10.13;;
16727;SDS011;8482;54.396;18.590;2022-11-15T16:23:14;18.25;;;9.75;;
16727;SDS011;8482;54.396;18.590;2022-11-15T16:25:47;17.73;;;9.70;;
16727;SDS011;8482;54.396;18.590;2022-11-15T16:28:19;18.80;;;9.95;;
16727;SDS011;8482;54.396;18.590;2022-11-15T16:30:58;17.63;;;9.15;;
16727;SDS011;8482;54.396;18.590;2022-11-15T16:33:30;19.38;;;10.30;;
16727;SDS011;8482;54.396;18.590;2022-11-15T16:35:56;20.38;;;10.43;;
16727;SDS011;8482;54.396;18.590;2022-11-15T16:38:22;18.98;;;10.40;;
16727;SDS011;8482;54.396;18.590;2022-11-15T16:40:48;21.60;;;10.00;;
16727;SDS011;8482;54.396;18.590;2022-11-15T16:43:14;19.48;;;10.43;;
16727;SDS011;8482;54.396;18.590;2022-11-15T16:45:40;19.35;;;10.57;;
16727;SDS011;8482;54.396;18.590;2022-11-15T16:48:06;19.60;;;10.50;;
16727;SDS011;8482;54.396;18.590;2022-11-15T16:50:45;22.83;;;11.93;;
16727;SDS011;8482;54.396;18.590;2022-11-15T16:53:11;20.52;;;11.73;;
16727;SDS011;8482;54.396;18.590;2022-11-15T16:55:37;23.70;;;13.00;;
16727;SDS011;8482;54.396;18.590;2022-11-15T16:58:02;23.45;;;12.88;;
16727;SDS011;8482;54.396;18.590;2022-11-15T17:00:28;21.33;;;13.02;;
16727;SDS011;8482;54.396;18.590;2022-11-15T17:02:54;22.08;;;12.60;;
16727;SDS011;8482;54.396;18.590;2022-11-15T17:05:21;21.50;;;11.93;;
16727;SDS011;8482;54.396;18.590;2022-11-15T17:07:49;21.52;;;11.82;;
16727;SDS011;8482;54.396;18.590;2022-11-15T17:10:22;22.17;;;11.82;;
16727;SDS011;8482;54.396;18.590;2022-11-15T17:12:50;21.75;;;12.23;;
16727;SDS011;8482;54.396;18.590;2022-11-15T17:15:17;21.38;;;11.82;;
16727;SDS011;8482;54.396;18.590;2022-11-15T17:17:43;19.25;;;11.00;;